createdAt,value
2022-10-31T00:01:26.513Z,0.27
2022-10-31T00:03:54.733Z,0.50
2022-10-31T00:06:23.285Z,0.50
2022-10-31T00:09:01.812Z,0.23
2022-10-31T00:11:29.645Z,0.30
2022-10-31T00:13:58.533Z,0.50
2022-10-31T00:16:27.160Z,0.50
2022-10-31T00:19:00.383Z,0.40
2022-10-31T00:21:29.749Z,0.50
2022-10-31T00:24:03.190Z,0.23
2022-10-31T00:26:34.604Z,0.57
2022-10-31T00:29:04.610Z,0.57
2022-10-31T00:31:33.075Z,0.60
2022-10-31T00:34:04.396Z,0.30
2022-10-31T00:36:31.997Z,0.30
2022-10-31T00:39:00.143Z,0.40
2022-10-31T00:41:27.640Z,0.30
2022-10-31T00:43:55.067Z,0.23
2022-10-31T00:46:22.872Z,0.27
2022-10-31T00:48:51.998Z,0.40
2022-10-31T00:51:19.596Z,0.33
2022-10-31T00:53:47.148Z,0.70
2022-10-31T00:56:14.753Z,0.40
2022-10-31T00:58:43.582Z,0.60
2022-10-31T01:01:11.156Z,0.50
2022-10-31T01:03:39.828Z,0.40
2022-10-31T01:06:13.847Z,0.70
2022-10-31T01:08:41.863Z,0.43
2022-10-31T01:11:24.453Z,0.30
2022-10-31T01:13:54.718Z,0.40
2022-10-31T01:16:24.663Z,0.40
2022-10-31T01:18:53.248Z,0.60
2022-10-31T01:21:26.524Z,0.33
2022-10-31T01:23:55.464Z,0.50
2022-10-31T01:26:29.042Z,0.53
2022-10-31T01:29:01.932Z,0.23
2022-10-31T01:31:32.560Z,0.50
2022-10-31T01:34:00.732Z,0.70
2022-10-31T01:36:31.808Z,0.30
2022-10-31T01:39:02.976Z,0.37
2022-10-31T01:41:35.098Z,0.57
2022-10-31T01:44:25.259Z,0.40
2022-10-31T01:46:55.608Z,0.40
2022-10-31T01:49:30.135Z,0.70
2022-10-31T01:52:23.282Z,0.43
2022-10-31T01:54:59.991Z,0.40
2022-10-31T01:57:28.665Z,0.63
2022-10-31T02:00:00.604Z,0.40
2022-10-31T02:02:31.362Z,0.50
2022-10-31T02:05:02.911Z,0.70
2022-10-31T02:07:55.968Z,0.60
2022-10-31T02:10:28.817Z,0.43
2022-10-31T02:12:59.737Z,0.60
2022-10-31T02:15:27.866Z,0.40
2022-10-31T02:17:55.403Z,0.40
2022-10-31T02:20:25.654Z,0.33
2022-10-31T02:23:20.614Z,0.30
2022-10-31T02:26:16.507Z,0.47
2022-10-31T02:29:13.119Z,0.53
2022-10-31T02:31:46.960Z,0.40
2022-10-31T02:34:23.779Z,0.60
2022-10-31T02:37:33.804Z,0.30
2022-10-31T02:40:19.896Z,0.20
2022-10-31T02:43:43.863Z,0.40
2022-10-31T02:46:29.787Z,0.60
2022-10-31T02:49:02.934Z,0.60
2022-10-31T02:51:30.698Z,0.47
2022-10-31T02:53:58.107Z,0.50
2022-10-31T02:56:25.682Z,0.57
2022-10-31T02:59:05.321Z,0.60
2022-10-31T03:01:50.756Z,0.50
2022-10-31T03:04:35.922Z,0.63
2022-10-31T03:07:21.806Z,0.70
2022-10-31T03:10:10.735Z,0.70
2022-10-31T03:12:55.697Z,0.47
2022-10-31T03:15:37.093Z,0.80
2022-10-31T03:18:08.325Z,0.40
2022-10-31T03:20:47.319Z,0.27
2022-10-31T03:23:20.947Z,0.50
2022-10-31T03:25:54.309Z,0.70
2022-10-31T03:28:45.458Z,0.57
2022-10-31T03:31:17.981Z,0.67
2022-10-31T03:33:47.065Z,0.60
2022-10-31T03:36:16.847Z,0.47
2022-10-31T03:38:47.986Z,0.47
2022-10-31T03:41:24.958Z,0.70
2022-10-31T03:44:15.308Z,0.50
2022-10-31T03:46:44.758Z,0.80
2022-10-31T03:49:13.268Z,0.50
2022-10-31T03:51:47.755Z,0.73
2022-10-31T03:54:26.673Z,0.63
2022-10-31T03:57:02.874Z,0.60
2022-10-31T03:59:36.491Z,0.60
2022-10-31T04:02:09.123Z,0.63
2022-10-31T04:04:38.277Z,0.80
2022-10-31T04:07:09.358Z,0.30
2022-10-31T04:09:41.995Z,0.80
2022-10-31T04:12:12.214Z,0.93
2022-10-31T04:14:59.000Z,0.60
2022-10-31T04:17:31.137Z,0.80
2022-10-31T04:20:01.462Z,0.60
2022-10-31T04:22:31.239Z,0.60
2022-10-31T04:24:58.828Z,0.60
2022-10-31T04:27:27.671Z,0.60
2022-10-31T04:29:55.304Z,1.13
2022-10-31T04:32:22.834Z,0.80
2022-10-31T04:34:53.878Z,0.73
2022-10-31T04:37:21.407Z,0.53
2022-10-31T04:39:49.353Z,0.40
2022-10-31T04:42:37.304Z,0.60
2022-10-31T04:45:06.921Z,0.90
2022-10-31T04:47:36.446Z,0.63
2022-10-31T04:50:06.582Z,0.60
2022-10-31T04:52:41.285Z,0.70
2022-10-31T04:55:11.300Z,0.70
2022-10-31T04:58:05.414Z,0.73
2022-10-31T05:00:34.397Z,0.50
2022-10-31T05:03:09.639Z,0.97
2022-10-31T05:05:41.368Z,0.60
2022-10-31T05:08:08.920Z,0.70
2022-10-31T05:10:37.422Z,0.53
2022-10-31T05:13:06.380Z,0.80
2022-10-31T05:16:11.882Z,0.73
2022-10-31T05:18:45.600Z,0.80
2022-10-31T05:21:28.379Z,0.67
2022-10-31T05:24:00.787Z,0.97
2022-10-31T05:26:29.299Z,0.57
2022-10-31T05:28:57.403Z,0.80
2022-10-31T05:31:25.219Z,0.73
2022-10-31T05:33:54.575Z,0.77
2022-10-31T05:36:40.391Z,0.60
2022-10-31T05:39:16.943Z,1.00
2022-10-31T05:41:48.514Z,0.77
2022-10-31T05:44:26.781Z,0.53
2022-10-31T05:47:21.356Z,0.67
2022-10-31T05:49:57.979Z,0.70
2022-10-31T05:52:43.793Z,0.73
2022-10-31T05:55:34.717Z,0.77
2022-10-31T05:58:19.018Z,0.70
2022-10-31T06:00:53.971Z,0.83
2022-10-31T06:03:21.992Z,1.00
2022-10-31T06:05:59.501Z,0.80
2022-10-31T06:08:37.449Z,0.70
2022-10-31T06:11:14.259Z,1.00
2022-10-31T06:14:02.652Z,0.67
2022-10-31T06:16:40.925Z,0.80
2022-10-31T06:19:28.736Z,0.68
2022-10-31T06:21:56.392Z,0.77
2022-10-31T06:24:23.822Z,0.90
2022-10-31T06:26:53.876Z,0.77
2022-10-31T06:29:22.292Z,0.90
2022-10-31T06:32:04.111Z,0.73
2022-10-31T06:34:33.924Z,1.20
2022-10-31T06:37:01.482Z,0.93
2022-10-31T06:39:30.222Z,0.90
2022-10-31T06:41:57.984Z,0.97
2022-10-31T06:44:30.051Z,1.13
2022-10-31T06:47:00.814Z,1.60
2022-10-31T06:49:54.437Z,1.13
2022-10-31T06:52:24.526Z,0.80
2022-10-31T06:54:52.735Z,0.90
2022-10-31T06:57:21.432Z,1.03
2022-10-31T06:59:48.847Z,1.10
2022-10-31T07:02:33.144Z,1.00
2022-10-31T07:05:01.985Z,0.50
2022-10-31T07:07:30.600Z,0.83
2022-10-31T07:09:58.203Z,0.67
2022-10-31T07:12:43.779Z,0.93
2022-10-31T07:15:11.510Z,0.77
2022-10-31T07:17:38.911Z,1.10
2022-10-31T07:20:09.764Z,1.07
2022-10-31T07:22:38.634Z,1.00
2022-10-31T07:25:10.312Z,0.90
2022-10-31T07:28:01.488Z,1.10
2022-10-31T07:30:29.719Z,1.13
2022-10-31T07:32:57.997Z,1.10
2022-10-31T07:35:37.156Z,1.30
2022-10-31T07:38:10.562Z,1.00
2022-10-31T07:40:38.334Z,1.10
2022-10-31T07:43:10.193Z,1.10
2022-10-31T07:45:59.404Z,0.80
2022-10-31T07:48:47.759Z,1.30
2022-10-31T07:51:33.977Z,1.00
2022-10-31T07:54:31.569Z,1.05
2022-10-31T07:56:59.101Z,0.80
2022-10-31T07:59:33.811Z,0.90
2022-10-31T08:02:01.699Z,1.10
2022-10-31T08:04:49.802Z,0.85
2022-10-31T08:07:38.419Z,0.70
2022-10-31T08:10:08.448Z,1.07
2022-10-31T08:12:38.742Z,1.50
2022-10-31T08:15:09.793Z,1.40
2022-10-31T08:17:38.762Z,1.10
2022-10-31T08:20:07.176Z,1.20
2022-10-31T08:22:43.827Z,1.00
2022-10-31T08:25:12.484Z,0.97
2022-10-31T08:27:40.366Z,0.97
2022-10-31T08:30:13.105Z,1.00
2022-10-31T08:32:47.588Z,0.73
2022-10-31T08:35:38.452Z,0.90
2022-10-31T08:38:38.475Z,0.77
2022-10-31T08:41:09.638Z,0.70
2022-10-31T08:43:38.055Z,0.93
2022-10-31T08:46:06.274Z,0.83
2022-10-31T08:48:34.004Z,1.20
2022-10-31T08:51:03.264Z,1.10
2022-10-31T08:53:31.367Z,1.00
2022-10-31T08:56:23.433Z,1.30
2022-10-31T08:58:52.275Z,1.40
2022-10-31T09:01:25.607Z,1.37
2022-10-31T09:03:53.232Z,1.47
2022-10-31T09:06:21.317Z,1.60
2022-10-31T09:08:49.507Z,1.07
2022-10-31T09:11:17.741Z,1.37
2022-10-31T09:14:03.677Z,1.13
2022-10-31T09:16:40.175Z,1.07
2022-10-31T09:19:14.350Z,1.40
2022-10-31T09:21:46.321Z,1.23
2022-10-31T09:24:16.229Z,1.40
2022-10-31T09:26:43.942Z,1.30
2022-10-31T09:29:18.211Z,1.10
2022-10-31T09:31:49.222Z,1.30
2022-10-31T09:34:26.404Z,0.95
2022-10-31T09:37:14.020Z,1.08
2022-10-31T09:39:41.643Z,1.37
2022-10-31T09:42:39.375Z,1.10
2022-10-31T09:45:44.818Z,1.17
2022-10-31T09:48:53.582Z,0.98
2022-10-31T09:51:36.018Z,1.25
2022-10-31T09:54:23.617Z,1.00
2022-10-31T09:56:52.066Z,1.00
2022-10-31T09:59:34.649Z,0.70
2022-10-31T10:02:07.165Z,0.98
2022-10-31T10:04:46.167Z,0.70
2022-10-31T10:07:47.462Z,0.65
2022-10-31T10:10:54.754Z,0.60
2022-10-31T10:13:52.593Z,0.75
2022-10-31T10:16:25.689Z,0.70
2022-10-31T10:19:24.230Z,0.90
2022-10-31T10:22:19.349Z,0.95
2022-10-31T10:24:52.770Z,0.50
2022-10-31T10:27:38.326Z,0.80
2022-10-31T10:30:19.516Z,0.43
2022-10-31T10:32:57.703Z,0.90
2022-10-31T10:35:35.345Z,0.52
2022-10-31T10:38:17.196Z,0.70
2022-10-31T10:40:45.571Z,0.82
2022-10-31T10:43:28.444Z,0.60
2022-10-31T10:46:23.322Z,0.70
2022-10-31T10:48:53.430Z,0.60
2022-10-31T10:52:20.117Z,0.70
2022-10-31T10:55:09.276Z,0.80
2022-10-31T10:57:51.230Z,1.02
2022-10-31T11:00:47.959Z,0.60
2022-10-31T11:03:17.132Z,0.50
2022-10-31T11:05:56.173Z,0.80
2022-10-31T11:08:28.685Z,0.73
2022-10-31T11:11:02.039Z,0.75
2022-10-31T11:13:31.155Z,0.77
2022-10-31T11:16:07.546Z,0.63
2022-10-31T11:18:44.195Z,0.63
2022-10-31T11:21:28.398Z,0.77
2022-10-31T11:24:13.562Z,0.90
2022-10-31T11:26:42.976Z,0.90
2022-10-31T11:29:16.721Z,0.98
2022-10-31T11:31:46.989Z,0.50
2022-10-31T11:34:26.892Z,0.70
2022-10-31T11:36:58.283Z,0.70
2022-10-31T11:39:25.883Z,1.10
2022-10-31T11:41:55.367Z,1.27
2022-10-31T11:44:27.414Z,1.00
2022-10-31T11:47:04.374Z,0.60
2022-10-31T11:49:38.545Z,0.73
2022-10-31T11:52:16.325Z,0.90
2022-10-31T11:54:51.409Z,0.90
2022-10-31T11:57:28.401Z,0.97
2022-10-31T11:59:58.921Z,0.77
2022-10-31T12:02:27.107Z,0.60
2022-10-31T12:05:22.529Z,0.73
2022-10-31T12:07:50.822Z,0.80
2022-10-31T12:10:22.822Z,0.90
2022-10-31T12:13:14.379Z,0.67
2022-10-31T12:15:55.001Z,0.80
2022-10-31T12:18:46.929Z,0.83
2022-10-31T12:21:28.357Z,1.10
2022-10-31T12:24:23.036Z,0.90
2022-10-31T12:27:19.717Z,0.60
2022-10-31T12:30:13.190Z,1.00
2022-10-31T12:32:49.548Z,1.13
2022-10-31T12:35:29.000Z,1.00
2022-10-31T12:37:59.495Z,0.80
2022-10-31T12:40:36.209Z,0.50
2022-10-31T12:43:36.158Z,0.80
2022-10-31T12:46:09.427Z,0.80
2022-10-31T12:49:01.566Z,0.50
2022-10-31T12:52:06.474Z,0.73
2022-10-31T12:55:31.061Z,1.17
2022-10-31T12:58:05.099Z,1.20
2022-10-31T13:00:37.254Z,0.80
2022-10-31T13:03:23.184Z,1.00
2022-10-31T13:05:59.231Z,1.30
2022-10-31T13:08:47.225Z,1.00
2022-10-31T13:14:06.712Z,0.80
2022-10-31T13:16:44.824Z,0.80
2022-10-31T13:19:30.673Z,1.00
2022-10-31T13:22:09.890Z,0.90
2022-10-31T13:25:04.747Z,1.80
2022-10-31T13:27:57.964Z,1.23
2022-10-31T13:30:29.865Z,1.00
2022-10-31T13:33:05.817Z,1.07
2022-10-31T13:35:52.573Z,0.80
2022-10-31T13:38:25.844Z,0.90
2022-10-31T13:41:00.766Z,0.80
2022-10-31T13:44:00.688Z,0.90
2022-10-31T13:46:34.018Z,0.87
2022-10-31T13:49:04.625Z,0.67
2022-10-31T13:51:36.177Z,0.83
2022-10-31T13:54:23.601Z,1.70
2022-10-31T13:56:53.584Z,1.20
2022-10-31T13:59:26.061Z,1.03
2022-10-31T14:01:58.807Z,0.70
2022-10-31T14:04:45.677Z,1.13
2022-10-31T14:07:16.311Z,1.00
2022-10-31T14:09:52.868Z,1.10
2022-10-31T14:12:42.493Z,0.82
2022-10-31T14:15:18.592Z,0.93
2022-10-31T14:17:51.881Z,1.13
2022-10-31T14:20:19.340Z,1.20
2022-10-31T14:22:46.922Z,1.60
2022-10-31T14:25:34.569Z,1.20
2022-10-31T14:28:18.608Z,1.33
2022-10-31T14:30:57.772Z,1.03
2022-10-31T14:33:30.845Z,1.00
2022-10-31T14:36:20.090Z,2.00
2022-10-31T14:38:59.481Z,1.40
2022-10-31T14:41:34.338Z,1.50
2022-10-31T14:44:13.825Z,1.43
2022-10-31T14:47:35.078Z,0.90
2022-10-31T14:50:20.668Z,1.10
2022-10-31T14:52:52.649Z,1.47
2022-10-31T14:55:21.954Z,1.40
2022-10-31T14:58:08.567Z,1.30
2022-10-31T15:00:37.294Z,1.30
2022-10-31T15:03:17.097Z,0.97
2022-10-31T15:05:55.301Z,1.10
2022-10-31T15:08:32.208Z,0.70
2022-10-31T15:11:03.440Z,1.05
2022-10-31T15:13:30.995Z,0.97
2022-10-31T15:15:58.673Z,1.50
2022-10-31T15:18:28.606Z,2.23
2022-10-31T15:20:57.845Z,1.40
2022-10-31T15:23:30.253Z,0.87
2022-10-31T15:26:06.086Z,1.10
2022-10-31T15:28:33.732Z,1.10
2022-10-31T15:31:03.253Z,1.07
2022-10-31T15:33:38.204Z,1.00
2022-10-31T15:36:07.251Z,0.90
2022-10-31T15:38:35.008Z,1.10
2022-10-31T15:41:21.101Z,1.00
2022-10-31T15:43:49.287Z,1.10
2022-10-31T15:46:16.793Z,1.00
2022-10-31T15:48:49.390Z,0.90
2022-10-31T15:51:17.126Z,1.10
2022-10-31T15:53:52.937Z,1.10
2022-10-31T15:56:27.434Z,1.17
2022-10-31T15:58:56.557Z,1.20
2022-10-31T16:01:29.769Z,0.97
2022-10-31T16:04:22.522Z,1.30
2022-10-31T16:07:24.065Z,1.43
2022-10-31T16:09:55.971Z,0.93
2022-10-31T16:12:25.689Z,1.30
2022-10-31T16:14:55.456Z,1.20
2022-10-31T16:17:25.654Z,1.37
2022-10-31T16:20:04.177Z,1.27
2022-10-31T16:22:35.769Z,1.30
2022-10-31T16:25:15.315Z,1.20
2022-10-31T16:27:54.277Z,0.90
2022-10-31T16:30:42.827Z,0.90
2022-10-31T16:33:31.947Z,1.40
2022-10-31T16:36:15.780Z,0.90
2022-10-31T16:38:48.024Z,0.97
2022-10-31T16:41:15.549Z,0.93
2022-10-31T16:43:43.045Z,1.30
2022-10-31T16:46:19.841Z,0.73
2022-10-31T16:48:47.457Z,0.80
2022-10-31T16:51:14.961Z,1.40
2022-10-31T16:53:46.570Z,0.80
2022-10-31T16:56:22.778Z,1.03
2022-10-31T16:58:50.737Z,1.03
2022-10-31T17:01:18.368Z,0.57
2022-10-31T17:03:46.012Z,1.03
2022-10-31T17:06:14.795Z,0.70
2022-10-31T17:08:42.505Z,1.10
2022-10-31T17:11:17.582Z,0.80
2022-10-31T17:13:45.307Z,0.77
2022-10-31T17:16:15.340Z,0.80
2022-10-31T17:18:43.942Z,0.73
2022-10-31T17:21:18.605Z,0.70
2022-10-31T17:23:46.191Z,0.70
2022-10-31T17:26:13.678Z,0.80
2022-10-31T17:28:41.629Z,1.00
2022-10-31T17:31:24.655Z,1.20
2022-10-31T17:34:00.105Z,0.90
2022-10-31T17:36:32.212Z,1.00
2022-10-31T17:39:00.140Z,0.80
2022-10-31T17:41:27.873Z,0.90
2022-10-31T17:43:59.760Z,0.87
2022-10-31T17:46:28.675Z,1.00
2022-10-31T17:48:58.202Z,0.77
2022-10-31T17:51:25.735Z,0.60
2022-10-31T17:53:53.407Z,0.90
2022-10-31T17:56:21.165Z,0.90
2022-10-31T17:58:48.918Z,0.90
2022-10-31T18:01:18.179Z,1.20
2022-10-31T18:03:45.901Z,1.33
2022-10-31T18:06:16.793Z,1.20
2022-10-31T18:08:47.397Z,1.23
2022-10-31T18:11:20.825Z,1.00
2022-10-31T18:13:48.497Z,1.20
2022-10-31T18:16:19.297Z,1.07
2022-10-31T18:18:52.267Z,1.77
2022-10-31T18:21:20.615Z,1.50
2022-10-31T18:23:48.357Z,0.90
2022-10-31T18:26:16.011Z,1.00
2022-10-31T18:28:44.443Z,0.80
2022-10-31T18:31:12.104Z,0.80
2022-10-31T18:33:39.610Z,0.77
2022-10-31T18:36:07.771Z,1.17
2022-10-31T18:38:39.546Z,1.50
2022-10-31T18:41:08.786Z,1.20
2022-10-31T18:43:36.472Z,0.90
2022-10-31T18:46:06.404Z,0.97
2022-10-31T18:48:34.093Z,0.80
2022-10-31T18:51:09.224Z,0.97
2022-10-31T18:54:13.979Z,1.00
2022-10-31T18:56:56.847Z,0.53
2022-10-31T19:13:09.986Z,0.93
2022-10-31T19:17:26.619Z,1.30
2022-10-31T19:23:40.827Z,1.47
2022-10-31T19:27:04.265Z,1.00
2022-10-31T19:30:15.254Z,0.90
2022-10-31T19:32:42.865Z,0.97
2022-10-31T19:35:37.922Z,1.00
2022-10-31T19:38:08.487Z,0.77
2022-10-31T19:40:37.155Z,1.13
2022-10-31T19:43:04.901Z,1.07
2022-10-31T19:45:32.449Z,0.93
2022-10-31T19:48:00.301Z,0.80
2022-10-31T19:50:29.103Z,0.80
2022-10-31T19:52:57.114Z,1.50
2022-10-31T19:55:24.609Z,1.00
2022-10-31T19:58:07.361Z,0.90
2022-10-31T20:00:35.136Z,0.87
2022-10-31T20:03:02.911Z,0.90
2022-10-31T20:18:30.531Z,1.02
2022-10-31T20:30:26.474Z,0.70
2022-10-31T20:33:39.488Z,0.80
2022-10-31T20:36:19.714Z,0.70
2022-10-31T20:39:03.327Z,0.60
2022-10-31T20:41:42.813Z,0.47
2022-10-31T20:45:24.946Z,0.60
2022-10-31T21:05:13.289Z,0.50
2022-10-31T21:12:05.474Z,0.60
2022-10-31T21:18:37.718Z,0.70
2022-10-31T21:21:09.498Z,0.63
2022-10-31T21:23:37.465Z,0.63
2022-10-31T21:26:09.669Z,0.70
2022-10-31T21:28:37.232Z,0.60
2022-10-31T21:31:13.201Z,0.80
2022-10-31T21:33:41.332Z,0.60
2022-10-31T21:36:09.637Z,0.70
2022-10-31T21:38:37.602Z,0.50
2022-10-31T21:41:11.009Z,1.17
2022-10-31T21:43:40.524Z,0.70
2022-10-31T21:46:09.503Z,0.53
2022-10-31T21:48:44.528Z,0.57
2022-10-31T21:51:17.647Z,0.60
2022-10-31T21:54:04.251Z,1.13
2022-10-31T21:56:33.400Z,0.55
2022-10-31T21:59:01.742Z,0.70
2022-10-31T22:01:29.774Z,0.40
2022-10-31T22:03:58.465Z,0.87
2022-10-31T22:06:27.475Z,0.63
2022-10-31T22:08:55.198Z,0.60
2022-10-31T22:11:22.997Z,0.50
2022-10-31T22:13:50.769Z,0.53
2022-10-31T22:16:20.841Z,0.50
2022-10-31T22:18:53.126Z,0.70
2022-10-31T22:21:26.261Z,0.40
2022-10-31T22:24:03.300Z,0.63
2022-10-31T22:26:33.459Z,0.60
2022-10-31T22:29:04.108Z,0.60
2022-10-31T22:31:33.397Z,0.77
2022-10-31T22:34:01.166Z,0.43
2022-10-31T22:36:30.312Z,0.40
2022-10-31T22:38:58.579Z,0.70
2022-10-31T22:41:31.506Z,0.60
2022-10-31T22:43:59.610Z,0.60
2022-10-31T22:46:29.842Z,0.40
2022-10-31T22:48:59.984Z,0.40
2022-10-31T22:51:33.220Z,0.57
2022-10-31T22:54:01.310Z,0.50
2022-10-31T22:56:33.822Z,0.30
2022-10-31T22:59:02.415Z,0.60
2022-10-31T23:01:32.845Z,0.33
2022-10-31T23:04:01.366Z,0.40
2022-10-31T23:06:30.706Z,0.60
2022-10-31T23:09:00.556Z,0.40
2022-10-31T23:11:33.751Z,0.63
2022-10-31T23:14:09.544Z,0.60
2022-10-31T23:16:38.539Z,0.50
2022-10-31T23:19:08.156Z,0.60
2022-10-31T23:21:55.120Z,0.80
2022-10-31T23:24:27.490Z,0.40
2022-10-31T23:27:12.164Z,0.67
2022-10-31T23:29:49.413Z,0.53
2022-10-31T23:32:18.798Z,0.47
2022-10-31T23:34:48.163Z,0.50
2022-10-31T23:37:17.427Z,0.47
2022-10-31T23:39:45.382Z,0.63
2022-10-31T23:42:13.997Z,0.37
2022-10-31T23:44:42.014Z,0.90
2022-10-31T23:47:09.731Z,0.60
2022-10-31T23:49:37.310Z,0.50
2022-10-31T23:52:05.724Z,0.70
2022-10-31T23:54:33.503Z,0.60
2022-10-31T23:57:02.116Z,0.40
2022-10-31T23:59:30.433Z,0.90
